• Join FlightAware (Why Join?)
  • Login
  • US Flag 
06:42AM EST


 

Airport Tracker/Info


-or-


 

Live Flight TrackerFlight Track Log ✈ DAL6034 ✈ 27-Apr-2013 ✈ KLGA - KMHT

Flight Track Log - Related Links

Times and Time Zones

All times are in EDT time to prevent confusion due to time zone crossing. See the DAL6034 flight status page for this flight to view local times or setup timezone preferences in your user account.

Time Position Orientation Groundspeed Altitude Reporting Facility
EDT Latitude Longitude Course Direction KTS MPH feet Rate Location/Type
06:43PM 40.7500 -73.8667 27° Northeast 186 214 2,500  Level New York TRACON
06:44PM 40.7833 -73.7833 62° Northeast 229 264 5,100 2,520 Climbing New York TRACON
06:45PM 41.0984 -73.6083 28° Northeast  Level FlightAware Approximate
06:45PM 40.8167 -73.7500 37° Northeast 217 250 7,500  Level New York TRACON
06:46PM 41.1809 -73.5417 33° Northeast  Level FlightAware Approximate
06:46PM 40.8833 -73.7000 30° Northeast 226 260 9,800  Level New York TRACON
06:47PM 41.2616 -73.4711 33° Northeast  Level FlightAware Approximate
06:48PM 41.3408 -73.4172 27° Northeast  Level FlightAware Approximate
06:48PM 41.0325 -73.7003 360° North 258 297 12,800  Level Boston Center
06:49PM 41.1181 -73.6992 North 299 344 14,400 1,440 Climbing Boston Center
06:50PM 41.1975 -73.6594 21° North 304 350 15,700 1,020 Climbing Boston Center
06:51PM 41.2694 -73.5669 44° Northeast 322 371 16,500 600 Climbing Boston Center
06:52PM 41.3453 -73.4769 42° Northeast 359 413 16,900 240 Climbing Boston Center
06:53PM 41.4275 -73.3786 42° Northeast 378 435 17,000  Climbing Boston Center
06:54PM 41.5094 -73.2800 42° Northeast 384 442 17,000  Level Boston Center
06:55PM 41.5789 -73.1839 46° Northeast 390 449 17,000  Level Boston Center
06:56PM 41.6711 -73.0819 40° Northeast 390 449 17,000  Level Boston Center
06:57PM 41.7569 -73.0244 27° Northeast 377 434 17,000  Level Boston Center
06:58PM 41.8469 -72.9611 28° Northeast 372 428 17,000  Level Boston Center
06:59PM 41.9411 -72.8950 28° Northeast 367 422 17,000  Level Boston Center
07:00PM 42.0350 -72.8314 27° Northeast 367 422 17,000  Level Boston Center
07:01PM 42.1331 -72.7619 28° Northeast 374 430 17,000  Level Boston Center
07:02PM 42.2333 -72.6897 28° Northeast 369 425 17,000  Level Boston Center
07:03PM 42.3231 -72.6283 27° Northeast 369 425 17,000  Level Boston Center
07:04PM 42.4044 -72.5694 28° Northeast 369 425 17,000 -480 Level Boston Center
07:05PM 42.4858 -72.4850 37° Northeast 369 425 16,100 -1,320 Descending Boston Center
07:06PM 42.5525 -72.3697 52° Northeast 369 425 14,400 -2,400 Descending Boston Center
07:07PM 42.6211 -72.2539 51° Northeast 369 425 11,400 -2,100 Descending Boston Center
07:08PM 42.6794 -72.1578 50° Northeast 339 390 10,200 -1,020 Descending Boston Center
07:09PM 42.7311 -72.0756 49° Northeast 299 344 9,400 -1,080 Descending Boston Center
07:10PM 42.7808 -71.9989 49° Northeast 268 308 8,100 -1,260 Descending Boston Center
07:11PM 42.8244 -71.9278 50° Northeast 257 296 6,900 -1,680 Descending Boston Center
07:12PM 42.8719 -71.8594 47° Northeast 248 285 4,800 -1,500 Descending Boston Center
07:13PM 42.9194 -71.7908 47° Northeast 243 280 4,000 -660 Descending Boston Center
07:14PM 42.9608 -71.7111 55° Northeast 243 280 3,500 -720 Descending Boston Center
07:15PM 43.0019 -71.6339 54° Northeast 248 285 2,600 -900 Descending Boston Center